Time;durP1;ratioP1;P1;durP2;ratioP2;P2;SDS_P1;SDS_P2;PMS_P1;PMS_P2;Temp;Humidity;BMP_temperature;BMP_pressure;BME280_temperature;BME280_humidity;BME280_pressure;Samples;Min_cycle;Max_cycle;Signal;HPM_P1;HPM_P2
2023/03/22 00:02:21;;;;;;;;;;;12.90;94.40;;;;;;5049721;28;19967;-74
2023/03/22 00:04:47;;;;;;;;;;;12.90;94.40;;;;;;5049008;28;20313;-74
2023/03/22 00:07:13;;;;;;;;;;;12.80;94.40;;;;;;5049849;28;19951;-74
2023/03/22 00:09:39;;;;;;;;;;;12.80;94.40;;;;;;5049674;28;19909;-74
2023/03/22 00:12:04;;;;;;;;;;;12.80;94.40;;;;;;5049493;28;20408;-74
2023/03/22 00:14:30;;;;;;;;;;;12.80;94.40;;;;;;5049642;28;19913;-74
2023/03/22 00:16:56;;;;;;;;;;;12.80;94.40;;;;;;5049550;28;19909;-74
2023/03/22 00:19:21;;;;;;;;;;;12.80;94.40;;;;;;5049592;28;19909;-74
2023/03/22 00:21:47;;;;;;;;;;;12.80;94.40;;;;;;5049557;28;20369;-74
2023/03/22 00:24:13;;;;;;;;;;;12.80;94.50;;;;;;5049545;28;19912;-74
2023/03/22 00:26:38;;;;;;;;;;;12.70;94.40;;;;;;5048210;28;19924;-74
2023/03/22 00:29:04;;;;;;;;;;;12.70;94.40;;;;;;5049512;28;19909;-74
2023/03/22 00:31:29;;;;;;;;;;;12.70;94.40;;;;;;5049241;28;19909;-74
2023/03/22 00:33:55;;;;;;;;;;;12.60;94.40;;;;;;5048001;28;20477;-74
2023/03/22 00:36:21;;;;;;;;;;;12.60;94.40;;;;;;5049159;28;19916;-74
2023/03/22 00:38:47;;;;;;;;;;;12.60;94.40;;;;;;5048017;28;19913;-74
2023/03/22 00:41:14;;;;;;;;;;;12.50;94.40;;;;;;5049625;28;19904;-75
2023/03/22 00:43:40;;;;;;;;;;;12.50;94.50;;;;;;5049139;28;19905;-74
2023/03/22 00:46:07;;;;;;;;;;;12.40;94.50;;;;;;5047721;28;19915;-74
2023/03/22 00:48:32;;;;;;;;;;;12.40;94.50;;;;;;5049142;28;20389;-74
2023/03/22 00:50:58;;;;;;;;;;;12.40;94.50;;;;;;5047749;28;20175;-74
2023/03/22 00:53:24;;;;;;;;;;;12.40;94.50;;;;;;5049433;28;20003;-74
2023/03/22 00:55:50;;;;;;;;;;;12.40;94.50;;;;;;5048997;28;19908;-75
2023/03/22 00:58:16;;;;;;;;;;;12.40;94.50;;;;;;5048899;28;19966;-74
2023/03/22 01:00:43;;;;;;;;;;;12.40;94.40;;;;;;5048806;28;19984;-74
2023/03/22 01:03:08;;;;;;;;;;;12.30;94.40;;;;;;5048699;28;20348;-75
2023/03/22 01:05:34;;;;;;;;;;;12.30;94.40;;;;;;5048969;28;19919;-74
2023/03/22 01:08:05;;;;;;;;;;;12.10;94.30;;;;;;5048452;28;19916;-74
2023/03/22 01:10:30;;;;;;;;;;;12.00;94.20;;;;;;5047070;28;19960;-75
2023/03/22 01:12:56;;;;;;;;;;;11.90;94.30;;;;;;5048547;28;19953;-75
2023/03/22 01:15:22;;;;;;;;;;;11.90;94.40;;;;;;5048575;28;20333;-74
2023/03/22 01:17:47;;;;;;;;;;;11.80;94.40;;;;;;5048566;28;20331;-75
2023/03/22 01:20:13;;;;;;;;;;;11.80;94.40;;;;;;5048455;28;20000;-75
2023/03/22 01:22:39;;;;;;;;;;;11.80;94.40;;;;;;5047246;28;20218;-75
2023/03/22 01:25:05;;;;;;;;;;;11.80;94.40;;;;;;5048383;28;20016;-74
2023/03/22 01:27:31;;;;;;;;;;;11.60;94.20;;;;;;5048337;28;19916;-74
2023/03/22 01:29:57;;;;;;;;;;;11.50;94.20;;;;;;5048262;28;19965;-75
2023/03/22 01:32:22;;;;;;;;;;;11.40;94.30;;;;;;5046992;28;20365;-74
2023/03/22 01:34:48;;;;;;;;;;;11.40;94.30;;;;;;5048364;28;19920;-75
2023/03/22 01:37:14;;;;;;;;;;;11.30;94.30;;;;;;5046995;28;19919;-75
2023/03/22 01:39:39;;;;;;;;;;;11.20;94.20;;;;;;5048130;28;19923;-74
2023/03/22 01:42:05;;;;;;;;;;;11.10;94.20;;;;;;5048097;28;19905;-74
2023/03/22 01:44:30;;;;;;;;;;;11.00;94.20;;;;;;5048177;28;19909;-75
2023/03/22 01:46:56;;;;;;;;;;;10.90;94.20;;;;;;5048212;28;20399;-75
2023/03/22 01:49:30;;;;;;;;;;;10.80;94.20;;;;;;5046702;28;19934;-75
2023/03/22 01:51:58;;;;;;;;;;;10.70;94.20;;;;;;5047969;28;19962;-74
2023/03/22 01:54:27;;;;;;;;;;;10.60;94.20;;;;;;5046667;28;19930;-75
2023/03/22 01:56:53;;;;;;;;;;;10.40;94.10;;;;;;5046634;28;19904;-74
2023/03/22 01:59:18;;;;;;;;;;;10.40;94.20;;;;;;5047828;28;19919;-74
2023/03/22 02:01:45;;;;;;;;;;;10.30;94.20;;;;;;5029865;28;19995;-75
2023/03/22 02:04:22;;;;;;;;;;;10.20;94.10;;;;;;5046562;28;20344;-74
2023/03/22 02:06:50;;;;;;;;;;;10.10;94.10;;;;;;5046570;28;19905;-74
2023/03/22 02:09:20;;;;;;;;;;;10.10;94.20;;;;;;5047762;28;19995;-75
2023/03/22 02:12:12;;;;;;;;;;;10.00;94.10;;;;;;5047718;28;19920;-74
2023/03/22 02:14:56;;;;;;;;;;;9.90;94.10;;;;;;5047929;28;20024;-74
2023/03/22 02:17:21;;;;;;;;;;;9.90;94.10;;;;;;5047785;28;19905;-75
2023/03/22 02:20:08;;;;;;;;;;;9.80;94.10;;;;;;5048448;28;19919;-75
2023/03/22 02:22:46;;;;;;;;;;;9.80;94.10;;;;;;5051826;28;19908;-76
2023/03/22 02:25:30;;;;;;;;;;;9.70;94.10;;;;;;5051886;28;20327;-75
2023/03/22 02:28:04;;;;;;;;;;;9.60;94.00;;;;;;5051854;28;19991;-75
2023/03/22 02:30:45;;;;;;;;;;;9.60;94.00;;;;;;5050866;28;19916;-76
2023/03/22 02:33:29;;;;;;;;;;;9.50;94.00;;;;;;5050262;28;19912;-75
2023/03/22 02:36:18;;;;;;;;;;;9.40;94.00;;;;;;5051708;28;19916;-75
2023/03/22 02:38:47;;;;;;;;;;;9.40;94.00;;;;;;5051494;28;19905;-75
2023/03/22 02:41:15;;;;;;;;;;;9.30;94.00;;;;;;5051545;28;20345;-75
2023/03/22 02:43:56;;;;;;;;;;;9.30;94.00;;;;;;5051853;28;19915;-76
2023/03/22 02:46:25;;;;;;;;;;;9.30;94.00;;;;;;5051490;28;20155;-75
2023/03/22 02:48:59;;;;;;;;;;;9.20;93.90;;;;;;5051365;28;19916;-75
2023/03/22 02:51:30;;;;;;;;;;;9.20;94.00;;;;;;5051215;28;19908;-75
2023/03/22 02:54:03;;;;;;;;;;;9.10;93.90;;;;;;5051419;28;20280;-75
2023/03/22 02:56:32;;;;;;;;;;;9.10;93.90;;;;;;5051174;28;19915;-75
2023/03/22 02:59:00;;;;;;;;;;;9.10;94.20;;;;;;5051263;28;19950;-75
2023/03/22 03:01:28;;;;;;;;;;;9.10;93.90;;;;;;5050947;28;19931;-75
2023/03/22 03:03:55;;;;;;;;;;;9.00;93.90;;;;;;5051020;28;19908;-75
2023/03/22 03:06:24;;;;;;;;;;;9.00;93.90;;;;;;5051053;28;19955;-74
2023/03/22 03:08:50;;;;;;;;;;;9.00;93.90;;;;;;5049790;28;19955;-75
2023/03/22 03:11:16;;;;;;;;;;;8.90;93.90;;;;;;5049469;28;20353;-75
2023/03/22 03:13:42;;;;;;;;;;;8.90;93.90;;;;;;5050727;28;19911;-74
2023/03/22 03:16:12;;;;;;;;;;;8.90;93.90;;;;;;5050868;28;19911;-75
2023/03/22 03:18:43;;;;;;;;;;;8.80;93.80;;;;;;5050886;28;19940;-75
2023/03/22 03:21:21;;;;;;;;;;;8.80;93.80;;;;;;5051174;28;20269;-75
2023/03/22 03:24:01;;;;;;;;;;;8.80;93.80;;;;;;5050899;28;19955;-75
2023/03/22 03:26:26;;;;;;;;;;;8.70;93.80;;;;;;5049475;28;19916;-75
2023/03/22 03:29:18;;;;;;;;;;;8.70;93.80;;;;;;5049380;28;19909;-75
2023/03/22 03:31:43;;;;;;;;;;;8.60;93.70;;;;;;5049787;28;19909;-75
2023/03/22 03:34:35;;;;;;;;;;;8.60;93.70;;;;;;5050554;28;19941;-75
2023/03/22 03:37:07;;;;;;;;;;;8.50;93.90;;;;;;5049215;28;19912;-75
2023/03/22 03:39:36;;;;;;;;;;;8.50;93.70;;;;;;5050400;28;19904;-75
2023/03/22 03:42:03;;;;;;;;;;;8.40;93.70;;;;;;5050350;28;19959;-75
2023/03/22 03:44:30;;;;;;;;;;;8.40;93.70;;;;;;5049092;28;19915;-75
2023/03/22 03:46:56;;;;;;;;;;;8.40;93.70;;;;;;5050405;28;19919;-75
2023/03/22 03:49:22;;;;;;;;;;;8.30;93.70;;;;;;5048939;28;19905;-75
2023/03/22 03:51:50;;;;;;;;;;;8.30;93.70;;;;;;5050286;28;19908;-75
2023/03/22 03:54:16;;;;;;;;;;;8.30;93.70;;;;;;5050221;28;19991;-75
2023/03/22 03:56:41;;;;;;;;;;;8.30;93.70;;;;;;5050195;28;20012;-75
2023/03/22 03:59:08;;;;;;;;;;;8.20;93.70;;;;;;5048729;28;20355;-75
2023/03/22 04:01:34;;;;;;;;;;;8.20;93.70;;;;;;5049795;28;19987;-75
2023/03/22 04:04:00;;;;;;;;;;;8.10;93.70;;;;;;5050504;28;19912;-74
2023/03/22 04:06:25;;;;;;;;;;;8.10;93.70;;;;;;5048840;28;19959;-74
2023/03/22 04:08:52;;;;;;;;;;;8.20;93.70;;;;;;5048735;28;20038;-74
2023/03/22 04:11:18;;;;;;;;;;;8.10;93.70;;;;;;5049771;28;19913;-75
2023/03/22 04:13:44;;;;;;;;;;;8.10;93.60;;;;;;5048571;28;19908;-75
2023/03/22 04:16:10;;;;;;;;;;;8.10;93.70;;;;;;5049800;28;19905;-74
2023/03/22 04:18:35;;;;;;;;;;;8.10;93.60;;;;;;5048498;28;19917;-75
2023/03/22 04:21:02;;;;;;;;;;;8.00;93.60;;;;;;5049925;28;19919;-74
2023/03/22 04:23:28;;;;;;;;;;;8.00;93.60;;;;;;5049584;28;20285;-74
2023/03/22 04:25:53;;;;;;;;;;;8.00;93.60;;;;;;5049601;28;19905;-74
2023/03/22 04:28:19;;;;;;;;;;;7.90;93.60;;;;;;5049635;28;20288;-74
2023/03/22 04:30:45;;;;;;;;;;;7.90;93.60;;;;;;5049425;28;19909;-74
2023/03/22 04:33:11;;;;;;;;;;;7.90;93.60;;;;;;5048184;28;19959;-75
2023/03/22 04:35:36;;;;;;;;;;;7.90;93.60;;;;;;5049437;28;19952;-74
2023/03/22 04:38:02;;;;;;;;;;;7.90;93.60;;;;;;5048349;28;19912;-74
2023/03/22 04:40:30;;;;;;;;;;;7.80;93.60;;;;;;5049469;28;19905;-74
2023/03/22 04:42:56;;;;;;;;;;;7.80;93.60;;;;;;5047275;28;20296;-75
2023/03/22 04:45:22;;;;;;;;;;;7.80;93.60;;;;;;5048887;28;19905;-74
2023/03/22 04:47:48;;;;;;;;;;;7.80;93.60;;;;;;5049311;28;20007;-75
2023/03/22 04:50:13;;;;;;;;;;;7.80;93.60;;;;;;5049042;28;19936;-74
2023/03/22 04:52:39;;;;;;;;;;;7.80;93.60;;;;;;5049036;28;19909;-75
2023/03/22 04:55:05;;;;;;;;;;;7.70;93.50;;;;;;5049061;28;19908;-75
2023/03/22 04:57:30;;;;;;;;;;;7.70;93.60;;;;;;5048988;28;19908;-74
2023/03/22 04:59:56;;;;;;;;;;;7.70;93.60;;;;;;5047474;28;19916;-74
2023/03/22 05:02:21;;;;;;;;;;;7.70;93.60;;;;;;5048737;28;20415;-74
2023/03/22 05:04:47;;;;;;;;;;;7.70;93.60;;;;;;5047467;28;19908;-74
2023/03/22 05:07:13;;;;;;;;;;;7.70;93.60;;;;;;5047631;28;19908;-74
2023/03/22 05:09:38;;;;;;;;;;;7.70;93.50;;;;;;5048848;28;19958;-74
2023/03/22 05:12:04;;;;;;;;;;;7.70;93.50;;;;;;5048814;28;20009;-75
2023/03/22 05:14:29;;;;;;;;;;;7.60;93.50;;;;;;5048700;28;19908;-75
2023/03/22 05:16:55;;;;;;;;;;;7.60;93.50;;;;;;5048692;28;20040;-75
2023/03/22 05:19:21;;;;;;;;;;;7.60;93.50;;;;;;5048480;28;19912;-75
2023/03/22 05:21:46;;;;;;;;;;;7.60;93.50;;;;;;5048571;28;19913;-75
2023/03/22 05:24:12;;;;;;;;;;;7.60;93.50;;;;;;5047229;28;19904;-75
2023/03/22 05:26:41;;;;;;;;;;;7.60;93.50;;;;;;5048493;28;20000;-75
2023/03/22 05:29:07;;;;;;;;;;;7.60;93.50;;;;;;5048350;28;19911;-75
2023/03/22 05:31:33;;;;;;;;;;;7.60;93.50;;;;;;5048186;28;19913;-74
2023/03/22 05:34:00;;;;;;;;;;;7.50;93.40;;;;;;5048062;28;19926;-75
2023/03/22 05:36:28;;;;;;;;;;;7.50;93.40;;;;;;5048353;28;19905;-75
2023/03/22 05:38:55;;;;;;;;;;;7.50;93.40;;;;;;5048236;28;19909;-74
2023/03/22 05:41:21;;;;;;;;;;;7.50;93.40;;;;;;5048283;28;19905;-74
2023/03/22 05:43:47;;;;;;;;;;;7.40;93.40;;;;;;5048192;28;19908;-75
2023/03/22 05:46:12;;;;;;;;;;;7.40;93.40;;;;;;5048340;28;19909;-74
2023/03/22 05:48:38;;;;;;;;;;;7.40;93.50;;;;;;5048106;28;20006;-74
2023/03/22 05:51:07;;;;;;;;;;;7.40;93.50;;;;;;5048107;28;20352;-74
2023/03/22 05:53:33;;;;;;;;;;;7.40;93.50;;;;;;5048119;28;19912;-74
2023/03/22 05:55:59;;;;;;;;;;;7.40;93.50;;;;;;5047640;28;19917;-74
2023/03/22 05:58:27;;;;;;;;;;;7.40;93.50;;;;;;5047794;28;20110;-74
2023/03/22 06:00:54;;;;;;;;;;;7.40;93.50;;;;;;5047562;28;20304;-74
2023/03/22 06:03:20;;;;;;;;;;;7.40;93.50;;;;;;5047690;28;19966;-74
2023/03/22 06:05:49;;;;;;;;;;;7.40;93.70;;;;;;5047867;28;20351;-73
2023/03/22 06:08:15;;;;;;;;;;;7.40;93.50;;;;;;5046676;28;19913;-74
2023/03/22 06:10:41;;;;;;;;;;;7.40;93.50;;;;;;5047767;28;20339;-74
2023/03/22 06:13:06;;;;;;;;;;;7.40;93.50;;;;;;5047809;28;19919;-74
2023/03/22 06:15:32;;;;;;;;;;;7.40;93.50;;;;;;5047814;28;19912;-75
2023/03/22 06:17:57;;;;;;;;;;;7.40;93.50;;;;;;5047703;28;19908;-74
2023/03/22 06:20:24;;;;;;;;;;;7.40;93.50;;;;;;5046453;28;19916;-74
2023/03/22 06:22:50;;;;;;;;;;;7.40;93.50;;;;;;5047715;28;19928;-74
2023/03/22 06:25:15;;;;;;;;;;;7.40;93.50;;;;;;5046459;28;19904;-74
2023/03/22 06:27:41;;;;;;;;;;;7.40;93.50;;;;;;5047821;28;20349;-74
2023/03/22 06:30:07;;;;;;;;;;;7.40;93.50;;;;;;5047713;28;19913;-74
2023/03/22 06:32:32;;;;;;;;;;;7.40;93.50;;;;;;5046001;28;19912;-74
2023/03/22 06:34:58;;;;;;;;;;;7.40;93.50;;;;;;5047615;28;20357;-74
2023/03/22 06:37:24;;;;;;;;;;;7.40;93.50;;;;;;5046023;28;19935;-74
2023/03/22 06:39:50;;;;;;;;;;;7.40;93.50;;;;;;5047391;28;19905;-74
2023/03/22 06:42:16;;;;;;;;;;;7.50;93.50;;;;;;5047583;28;19915;-74
2023/03/22 06:44:43;;;;;;;;;;;7.50;93.50;;;;;;5047395;28;19909;-75
2023/03/22 06:47:09;;;;;;;;;;;7.50;93.50;;;;;;5047496;28;19912;-74
2023/03/22 06:49:35;;;;;;;;;;;7.50;93.50;;;;;;5047483;28;19909;-74
2023/03/22 06:52:01;;;;;;;;;;;7.50;93.50;;;;;;5047129;28;19909;-74
2023/03/22 06:54:26;;;;;;;;;;;7.60;93.50;;;;;;5045945;28;19917;-74
2023/03/22 06:56:52;;;;;;;;;;;7.60;93.50;;;;;;5047264;28;19909;-74
2023/03/22 06:59:18;;;;;;;;;;;7.60;93.50;;;;;;5046909;28;19942;-75
2023/03/22 07:01:43;;;;;;;;;;;7.70;93.50;;;;;;5046890;28;19996;-74
2023/03/22 07:04:09;;;;;;;;;;;7.70;93.50;;;;;;5047156;28;20071;-74
2023/03/22 07:06:34;;;;;;;;;;;7.80;93.50;;;;;;5046156;28;20377;-74
2023/03/22 07:09:01;;;;;;;;;;;7.80;93.50;;;;;;5049248;28;19932;-74
2023/03/22 07:11:26;;;;;;;;;;;7.90;93.50;;;;;;5050536;28;19960;-75
2023/03/22 07:13:53;;;;;;;;;;;7.90;93.50;;;;;;5050925;28;20426;-74
2023/03/22 07:16:18;;;;;;;;;;;7.90;93.50;;;;;;5049535;28;20011;-74
2023/03/22 07:18:44;;;;;;;;;;;8.00;93.50;;;;;;5050669;28;19996;-74
2023/03/22 07:21:09;;;;;;;;;;;8.10;93.60;;;;;;5050630;28;19909;-74
2023/03/22 07:23:35;;;;;;;;;;;8.10;93.50;;;;;;5049108;28;19909;-74
2023/03/22 07:26:01;;;;;;;;;;;8.20;93.60;;;;;;5050471;28;19999;-75
2023/03/22 07:28:26;;;;;;;;;;;8.20;93.60;;;;;;5050440;28;19966;-75
2023/03/22 07:30:59;;;;;;;;;;;8.30;93.60;;;;;;5050365;28;20314;-74
2023/03/22 07:33:24;;;;;;;;;;;8.40;93.60;;;;;;5048968;28;19912;-74
2023/03/22 07:35:50;;;;;;;;;;;8.40;93.60;;;;;;5050197;28;19920;-74
2023/03/22 07:38:15;;;;;;;;;;;8.50;93.60;;;;;;5048462;28;19908;-74
2023/03/22 07:40:41;;;;;;;;;;;8.60;93.70;;;;;;5050820;28;20371;-74
2023/03/22 07:43:07;;;;;;;;;;;8.70;93.70;;;;;;5050330;28;20293;-74
2023/03/22 07:45:32;;;;;;;;;;;8.90;93.80;;;;;;5050221;28;20132;-75
2023/03/22 07:47:58;;;;;;;;;;;9.20;93.90;;;;;;5050008;28;19913;-74
2023/03/22 07:50:23;;;;;;;;;;;9.50;94.00;;;;;;5048691;28;20272;-74
2023/03/22 07:52:49;;;;;;;;;;;9.90;94.00;;;;;;5048524;28;20262;-75
2023/03/22 07:55:15;;;;;;;;;;;10.20;93.90;;;;;;5049789;28;19935;-75
2023/03/22 07:57:40;;;;;;;;;;;10.50;93.90;;;;;;5049512;28;19916;-74
2023/03/22 08:00:08;;;;;;;;;;;10.90;93.90;;;;;;5049471;28;19919;-74
2023/03/22 08:02:33;;;;;;;;;;;11.20;93.70;;;;;;5049494;28;19916;-75
2023/03/22 08:05:00;;;;;;;;;;;11.40;93.60;;;;;;5032186;28;19920;-74
2023/03/22 08:07:25;;;;;;;;;;;11.60;93.80;;;;;;5049357;28;20536;-73
2023/03/22 08:09:51;;;;;;;;;;;12.20;94.30;;;;;;5047920;28;20034;-74
2023/03/22 08:12:17;;;;;;;;;;;12.60;93.60;;;;;;5049353;28;19953;-74
2023/03/22 08:14:46;;;;;;;;;;;12.60;93.30;;;;;;5049531;28;20013;-74
2023/03/22 08:17:12;;;;;;;;;;;12.50;93.30;;;;;;5047842;28;20380;-72
2023/03/22 08:19:38;;;;;;;;;;;12.40;93.40;;;;;;5031210;28;19908;-74
2023/03/22 08:22:04;;;;;;;;;;;12.50;93.60;;;;;;5048209;28;19936;-75
2023/03/22 08:24:29;;;;;;;;;;;12.70;93.90;;;;;;5048112;28;20003;-74
2023/03/22 08:26:56;;;;;;;;;;;13.10;94.10;;;;;;5048006;28;19912;-75
2023/03/22 08:29:21;;;;;;;;;;;13.70;94.30;;;;;;5049210;28;19908;-75
2023/03/22 08:31:47;;;;;;;;;;;14.40;94.30;;;;;;5048953;28;19920;-75
2023/03/22 08:34:13;;;;;;;;;;;15.10;94.20;;;;;;5049119;28;20384;-75
2023/03/22 08:36:38;;;;;;;;;;;15.60;94.00;;;;;;5049282;28;20319;-75
2023/03/22 08:39:04;;;;;;;;;;;16.10;94.10;;;;;;5048772;28;19912;-75
2023/03/22 08:41:30;;;;;;;;;;;16.60;94.10;;;;;;5048247;28;19924;-74
2023/03/22 08:43:56;;;;;;;;;;;17.10;94.10;;;;;;5030682;28;20038;-75
2023/03/22 08:46:21;;;;;;;;;;;17.60;94.10;;;;;;5048951;28;19927;-73
2023/03/22 08:48:50;;;;;;;;;;;18.00;94.00;;;;;;5047334;28;19912;-73
2023/03/22 08:51:20;;;;;;;;;;;17.70;92.90;;;;;;5048179;28;20356;-75
2023/03/22 08:53:46;;;;;;;;;;;17.20;93.10;;;;;;5048352;28;20306;-75
2023/03/22 08:56:13;;;;;;;;;;;16.80;93.20;;;;;;5048176;28;19951;-75
2023/03/22 08:58:41;;;;;;;;;;;16.40;93.20;;;;;;5046821;28;20349;-75
2023/03/22 09:01:10;;;;;;;;;;;16.00;93.50;;;;;;5048749;28;19924;-73
2023/03/22 09:03:35;;;;;;;;;;;16.20;94.20;;;;;;5037540;28;20269;-74
2023/03/22 09:06:01;;;;;;;;;;;16.80;94.40;;;;;;5037269;28;19928;-74
2023/03/22 09:08:27;;;;;;;;;;;17.30;94.40;;;;;;5039868;28;19957;-75
2023/03/22 09:10:53;;;;;;;;;;;18.00;94.30;;;;;;5035165;28;19909;-75
2023/03/22 09:13:20;;;;;;;;;;;18.50;94.10;;;;;;5037706;28;20372;-77
2023/03/22 09:15:46;;;;;;;;;;;18.70;93.90;;;;;;5037546;28;19947;-75
2023/03/22 09:18:12;;;;;;;;;;;19.00;93.80;;;;;;5037937;28;20420;-74
2023/03/22 09:20:38;;;;;;;;;;;18.90;93.50;;;;;;5036523;28;19905;-74
2023/03/22 09:23:03;;;;;;;;;;;18.90;93.50;;;;;;5038140;28;20409;-75
2023/03/22 09:25:29;;;;;;;;;;;18.70;93.20;;;;;;5039880;28;20042;-75
2023/03/22 09:27:55;;;;;;;;;;;18.10;93.00;;;;;;5037943;28;20377;-76
2023/03/22 09:30:20;;;;;;;;;;;17.50;93.00;;;;;;5039361;28;20292;-77
2023/03/22 09:32:46;;;;;;;;;;;16.80;93.10;;;;;;5038246;28;19913;-77
2023/03/22 09:35:11;;;;;;;;;;;16.30;93.30;;;;;;5033742;28;20388;-76
2023/03/22 09:37:38;;;;;;;;;;;15.90;93.40;;;;;;5039179;28;19913;-77
2023/03/22 09:40:05;;;;;;;;;;;15.60;93.80;;;;;;5038440;28;20361;-77
2023/03/22 09:42:33;;;;;;;;;;;15.50;93.90;;;;;;5039110;28;19956;-77
2023/03/22 09:45:00;;;;;;;;;;;15.50;93.90;;;;;;5038048;28;19913;-77
2023/03/22 09:47:30;;;;;;;;;;;15.60;94.10;;;;;;5039494;28;19995;-78
2023/03/22 09:50:01;;;;;;;;;;;15.80;94.20;;;;;;5040312;28;19905;-78
2023/03/22 09:52:28;;;;;;;;;;;15.80;93.80;;;;;;5040317;28;19916;-77
2023/03/22 09:54:54;;;;;;;;;;;15.50;93.60;;;;;;5036531;28;19991;-77
2023/03/22 09:57:19;;;;;;;;;;;15.70;94.10;;;;;;5043575;28;20425;-77
2023/03/22 09:59:48;;;;;;;;;;;15.90;94.20;;;;;;5035209;28;19909;-77
2023/03/22 10:02:20;;;;;;;;;;;16.50;94.60;;;;;;5039745;28;19966;-76
2023/03/22 10:04:50;;;;;;;;;;;17.10;94.80;;;;;;5036516;28;20361;-76
2023/03/22 10:07:28;;;;;;;;;;;17.90;94.60;;;;;;5042497;28;19951;-76
2023/03/22 10:10:17;;;;;;;;;;;18.60;94.50;;;;;;5033346;28;20665;-77
2023/03/22 10:12:56;;;;;;;;;;;19.20;94.20;;;;;;5036621;28;19987;-77
2023/03/22 10:15:33;;;;;;;;;;;19.10;93.30;;;;;;5037447;28;19908;-76
2023/03/22 10:18:00;;;;;;;;;;;18.30;92.70;;;;;;5038725;28;19919;-75
2023/03/22 10:20:35;;;;;;;;;;;17.70;93.40;;;;;;5035737;28;19909;-76
2023/03/22 10:23:02;;;;;;;;;;;18.20;94.70;;;;;;5039966;28;19905;-76
2023/03/22 10:25:35;;;;;;;;;;;19.30;95.00;;;;;;5035376;28;19959;-76
2023/03/22 10:28:01;;;;;;;;;;;20.20;94.60;;;;;;5043409;28;20264;-76
2023/03/22 10:30:33;;;;;;;;;;;21.10;94.40;;;;;;5041065;28;19905;-77
2023/03/22 10:33:12;;;;;;;;;;;21.60;94.10;;;;;;5042750;28;20729;-74
2023/03/22 10:35:37;;;;;;;;;;;21.90;93.80;;;;;;5037923;28;19912;-76
2023/03/22 10:38:05;;;;;;;;;;;22.10;94.00;;;;;;5015461;28;19909;-76
2023/03/22 10:40:32;;;;;;;;;;;22.40;93.90;;;;;;5031129;28;19909;-76
2023/03/22 10:43:18;;;;;;;;;;;22.40;94.00;;;;;;5038889;28;20284;-75
2023/03/22 10:45:44;;;;;;;;;;;22.70;94.20;;;;;;5046742;28;19919;-75
2023/03/22 10:48:24;;;;;;;;;;;23.10;94.00;;;;;;5046219;28;20004;-76
2023/03/22 10:50:49;;;;;;;;;;;22.50;93.00;;;;;;5046503;28;20039;-75
2023/03/22 10:53:23;;;;;;;;;;;21.30;92.80;;;;;;5047639;28;19928;-75
2023/03/22 10:55:49;;;;;;;;;;;20.50;93.10;;;;;;5041342;28;19908;-76
2023/03/22 10:58:16;;;;;;;;;;;19.80;93.30;;;;;;5040176;28;19979;-77
2023/03/22 11:00:47;;;;;;;;;;;19.30;93.50;;;;;;5042146;28;19921;-76
2023/03/22 11:03:24;;;;;;;;;;;18.90;93.60;;;;;;5031088;28;19923;-76
2023/03/22 11:06:00;;;;;;;;;;;18.50;93.60;;;;;;5030936;28;19951;-74
2023/03/22 11:08:25;;;;;;;;;;;18.40;94.30;;;;;;5031858;28;19951;-75
2023/03/22 11:10:53;;;;;;;;;;;18.50;94.00;;;;;;5032070;28;19904;-77
2023/03/22 11:13:21;;;;;;;;;;;18.20;93.70;;;;;;5032126;28;20000;-77
2023/03/22 11:16:01;;;;;;;;;;;18.30;94.20;;;;;;5032051;28;19909;-76
2023/03/22 11:18:31;;;;;;;;;;;18.70;94.50;;;;;;5030661;28;19908;-77
2023/03/22 11:21:16;;;;;;;;;;;19.20;94.60;;;;;;5031442;28;19905;-75
2023/03/22 11:23:47;;;;;;;;;;;19.80;94.50;;;;;;5031386;28;20013;-75
2023/03/22 11:26:13;;;;;;;;;;;20.10;94.30;;;;;;5031677;28;19905;-75
2023/03/22 11:28:48;;;;;;;;;;;20.60;94.60;;;;;;5030810;28;19980;-75
2023/03/22 11:31:15;;;;;;;;;;;20.80;94.20;;;;;;5031153;28;19905;-78
2023/03/22 11:33:52;;;;;;;;;;;20.80;94.00;;;;;;5031417;28;19988;-78
2023/03/22 11:36:18;;;;;;;;;;;20.80;93.80;;;;;;5032033;28;19956;-78
2023/03/22 11:38:55;;;;;;;;;;;20.60;93.90;;;;;;5031233;28;19941;-75
2023/03/22 11:41:22;;;;;;;;;;;20.40;93.60;;;;;;5029522;28;19958;-76
2023/03/22 11:43:53;;;;;;;;;;;19.60;93.20;;;;;;5030965;28;19992;-78
2023/03/22 11:46:18;;;;;;;;;;;19.40;94.20;;;;;;5030166;28;19913;-78
2023/03/22 11:48:45;;;;;;;;;;;19.60;94.20;;;;;;5029806;28;19931;-75
2023/03/22 11:51:12;;;;;;;;;;;19.90;94.60;;;;;;5031141;28;19991;-75
2023/03/22 11:53:39;;;;;;;;;;;20.40;94.70;;;;;;5030315;28;20012;-75
2023/03/22 11:56:07;;;;;;;;;;;20.30;94.00;;;;;;5030673;28;19905;-73
2023/03/22 11:58:36;;;;;;;;;;;20.20;94.00;;;;;;5030939;28;19905;-74
2023/03/22 12:01:03;;;;;;;;;;;19.90;93.80;;;;;;5030993;28;20008;-77
2023/03/22 12:03:31;;;;;;;;;;;19.50;93.80;;;;;;5030528;28;19917;-73
2023/03/22 12:05:57;;;;;;;;;;;19.30;94.00;;;;;;5030872;28;19996;-74
2023/03/22 12:08:35;;;;;;;;;;;19.70;94.70;;;;;;5030245;28;19909;-75
2023/03/22 12:11:20;;;;;;;;;;;20.20;94.60;;;;;;5030074;28;20019;-74
2023/03/22 12:14:00;;;;;;;;;;;20.30;94.00;;;;;;5025990;28;19935;-76
2023/03/22 12:16:32;;;;;;;;;;;20.30;94.20;;;;;;5028964;28;19908;-78
2023/03/22 12:19:04;;;;;;;;;;;20.20;94.10;;;;;;5029257;28;19927;-74
2023/03/22 12:21:30;;;;;;;;;;;19.90;93.70;;;;;;5030626;28;19988;-74
2023/03/22 12:23:57;;;;;;;;;;;19.90;94.20;;;;;;5030388;28;19909;-75
2023/03/22 12:26:25;;;;;;;;;;;20.10;94.20;;;;;;5030103;28;19909;-75
2023/03/22 12:29:14;;;;;;;;;;;20.30;94.30;;;;;;5030128;28;19988;-75
2023/03/22 12:31:58;;;;;;;;;;;20.60;94.40;;;;;;5030223;28;19920;-75
2023/03/22 12:34:27;;;;;;;;;;;20.70;94.30;;;;;;5028975;28;19909;-75
2023/03/22 12:36:55;;;;;;;;;;;20.90;94.40;;;;;;5030059;28;20004;-75
2023/03/22 12:39:25;;;;;;;;;;;21.00;94.20;;;;;;5030242;28;19932;-76
2023/03/22 12:41:52;;;;;;;;;;;20.70;93.50;;;;;;5029934;28;19916;-76
2023/03/22 12:44:25;;;;;;;;;;;19.90;93.10;;;;;;5030130;28;19924;-76
2023/03/22 12:46:57;;;;;;;;;;;19.10;93.40;;;;;;5029754;28;19995;-76
2023/03/22 12:49:41;;;;;;;;;;;19.00;94.20;;;;;;5028637;28;19905;-77
2023/03/22 12:52:14;;;;;;;;;;;19.20;94.60;;;;;;5029455;28;19919;-74
2023/03/22 12:54:40;;;;;;;;;;;19.40;94.10;;;;;;5028974;28;19909;-76
2023/03/22 12:57:07;;;;;;;;;;;19.30;94.00;;;;;;5029262;28;19909;-76
2023/03/22 12:59:32;;;;;;;;;;;19.30;94.40;;;;;;5029002;28;19943;-72
2023/03/22 13:02:03;;;;;;;;;;;19.50;94.30;;;;;;5027786;28;20035;-76
2023/03/22 13:04:35;;;;;;;;;;;19.40;94.00;;;;;;5028605;28;20523;-78
2023/03/22 13:07:14;;;;;;;;;;;19.50;94.30;;;;;;5029496;28;19905;-76
2023/03/22 13:09:40;;;;;;;;;;;19.80;94.50;;;;;;5029033;28;19916;-76
2023/03/22 13:12:15;;;;;;;;;;;20.10;94.40;;;;;;5028911;28;19909;-74
2023/03/22 13:14:56;;;;;;;;;;;20.10;94.00;;;;;;5029600;28;19905;-75
2023/03/22 13:17:21;;;;;;;;;;;19.70;93.70;;;;;;5028338;28;20353;-74
2023/03/22 13:20:10;;;;;;;;;;;19.30;93.70;;;;;;5029231;28;19983;-73
2023/03/22 13:22:41;;;;;;;;;;;19.00;93.70;;;;;;5026182;28;19905;-77
2023/03/22 13:25:13;;;;;;;;;;;18.60;93.70;;;;;;5029401;28;20000;-77
2023/03/22 13:27:42;;;;;;;;;;;18.40;93.80;;;;;;5029106;28;19913;-74
2023/03/22 13:30:15;;;;;;;;;;;18.30;93.80;;;;;;5028855;28;19905;-74
2023/03/22 13:32:53;;;;;;;;;;;18.30;94.10;;;;;;5028757;28;19951;-74
2023/03/22 13:35:26;;;;;;;;;;;18.30;93.90;;;;;;5029214;28;19912;-75
2023/03/22 13:37:54;;;;;;;;;;;18.10;93.60;;;;;;5028718;28;19905;-76
2023/03/22 13:40:28;;;;;;;;;;;17.80;93.60;;;;;;5028669;28;19909;-76
2023/03/22 13:43:07;;;;;;;;;;;17.60;93.50;;;;;;5028703;28;19976;-76
2023/03/22 13:45:33;;;;;;;;;;;17.40;93.60;;;;;;5029083;28;19905;-76
2023/03/22 13:48:10;;;;;;;;;;;17.10;93.40;;;;;;5028947;28;19912;-77
2023/03/22 13:50:36;;;;;;;;;;;16.90;93.50;;;;;;5029149;28;19905;-76
2023/03/22 13:53:06;;;;;;;;;;;16.70;93.50;;;;;;5028829;28;20007;-75
2023/03/22 13:55:47;;;;;;;;;;;16.70;93.70;;;;;;5028879;28;19905;-75
2023/03/22 13:58:37;;;;;;;;;;;16.70;93.80;;;;;;5028939;28;19905;-76
2023/03/22 14:01:12;;;;;;;;;;;16.60;93.60;;;;;;5028513;28;19909;-75
2023/03/22 14:03:40;;;;;;;;;;;16.60;93.70;;;;;;5035280;28;19921;-76
2023/03/22 14:06:10;;;;;;;;;;;16.70;93.70;;;;;;5048612;28;19904;-77
2023/03/22 14:08:36;;;;;;;;;;;16.70;93.40;;;;;;5049026;28;19940;-76
2023/03/22 14:11:09;;;;;;;;;;;16.60;93.40;;;;;;5048686;28;19911;-76
2023/03/22 14:13:56;;;;;;;;;;;16.50;93.40;;;;;;5048652;28;20056;-75
2023/03/22 14:16:50;;;;;;;;;;;16.30;93.40;;;;;;5051657;28;19944;-75
2023/03/22 14:19:19;;;;;;;;;;;16.30;93.50;;;;;;5050369;28;19905;-77
2023/03/22 14:21:48;;;;;;;;;;;16.10;93.40;;;;;;5055316;28;19917;-74
2023/03/22 14:24:14;;;;;;;;;;;15.90;93.30;;;;;;5055104;28;19958;-76
2023/03/22 14:26:42;;;;;;;;;;;15.50;92.50;;;;;;5046665;28;19932;-76
2023/03/22 14:29:16;;;;;;;;;;;14.70;92.70;;;;;;5047091;28;19920;-74
2023/03/22 14:31:42;;;;;;;;;;;14.20;93.20;;;;;;5046289;28;19909;-76